Time;durP1;ratioP1;P1;durP2;ratioP2;P2;SDS_P1;SDS_P2;PMS_P1;PMS_P2;Temp;Humidity;BMP_temperature;BMP_pressure;BME280_temperature;BME280_humidity;BME280_pressure;Samples;Min_cycle;Max_cycle;Signal;HPM_P1;HPM_P2
2023/08/08 00:01:19;;;;;;;29.30;15.10;;;;;;;30.59;73.49;100909.09;5056955;28;67450;-44
2023/08/08 00:04:10;;;;;;;22.30;11.85;;;;;;;30.56;71.83;100890.56;5055596;28;71211;-44
2023/08/08 00:06:59;;;;;;;16.63;9.60;;;;;;;30.57;77.86;100913.06;5052177;28;66489;-44
2023/08/08 00:09:49;;;;;;;19.08;9.40;;;;;;;30.63;76.61;100918.44;5058395;28;71418;-43
2023/08/08 00:12:38;;;;;;;15.40;9.30;;;;;;;30.63;77.80;100918.44;5052118;28;65738;-43
2023/08/08 00:15:28;;;;;;;17.45;9.82;;;;;;;30.69;74.96;100912.13;5048909;28;71344;-45
2023/08/08 00:18:17;;;;;;;16.20;8.48;;;;;;;30.69;76.53;100922.16;5056273;28;66589;-45
2023/08/08 00:21:07;;;;;;;18.40;9.82;;;;;;;30.77;77.49;100924.59;5056809;28;71141;-46
2023/08/08 00:23:56;;;;;;;19.25;8.90;;;;;;;30.77;77.40;100912.94;5056790;28;67238;-48
2023/08/08 00:26:45;;;;;;;14.05;8.45;;;;;;;30.89;75.77;100916.63;5056974;28;71168;-49
2023/08/08 00:29:35;;;;;;;15.35;8.65;;;;;;;30.97;74.29;100924.47;5057238;28;66415;-45
2023/08/08 00:32:24;;;;;;;20.75;8.30;;;;;;;30.95;74.71;100915.72;5056719;28;70569;-44
2023/08/08 00:35:14;;;;;;;23.63;9.43;;;;;;;30.97;77.92;100913.66;5053396;28;66871;-45
2023/08/08 00:38:05;;;;;;;16.27;8.25;;;;;;;31.01;77.38;100920.28;5036367;28;70105;-45
2023/08/08 00:40:54;;;;;;;15.05;7.20;;;;;;;31.05;76.75;100926.91;5038682;28;66292;-45
2023/08/08 00:43:43;;;;;;;13.98;7.93;;;;;;;31.09;76.49;100920.03;5053518;28;70952;-44
2023/08/08 00:46:35;;;;;;;20.17;8.27;;;;;;;31.16;74.60;100928.09;5053515;28;43139;-42
2023/08/08 00:49:25;;;;;;;20.40;7.95;;;;;;;31.26;72.17;100925.72;5052277;28;71241;-42
2023/08/08 00:52:15;;;;;;;16.33;6.85;;;;;;;31.31;71.51;100935.88;5051717;28;66508;-42
2023/08/08 00:55:05;;;;;;;14.38;6.65;;;;;;;31.33;71.06;100939.19;5057190;28;71115;-42
2023/08/08 00:57:55;;;;;;;16.85;7.10;;;;;;;31.31;70.33;100930.44;5057999;28;67303;-42
2023/08/08 01:00:45;;;;;;;12.55;6.28;;;;;;;31.33;70.49;100931.06;5057317;28;71158;-40
2023/08/08 01:03:34;;;;;;;8.88;6.35;;;;;;;31.44;70.10;100945.81;5056591;28;67331;-42
2023/08/08 01:06:50;;;;;;;11.90;6.90;;;;;;;31.47;70.05;100945.34;5047437;28;70032;-42
2023/08/08 01:09:50;;;;;;;6.97;5.93;;;;;;;30.98;70.00;100861.16;5039411;28;67124;-41
2023/08/08 01:12:44;;;;;;;10.15;6.57;;;;;;;31.52;69.64;100932.78;5056514;28;70393;-41
2023/08/08 01:15:35;;;;;;;9.60;6.70;;;;;;;31.54;69.78;100935.28;5057916;28;67300;-41
2023/08/08 01:18:27;;;;;;;7.43;5.97;;;;;;;31.54;69.41;100936.13;5059392;28;71120;-41
2023/08/08 01:21:17;;;;;;;9.35;6.20;;;;;;;31.57;69.62;100935.66;5060920;28;67350;-42
2023/08/08 01:24:29;;;;;;;11.20;5.78;;;;;;;31.41;69.93;100924.56;5052048;28;70566;-42
2023/08/08 01:27:19;;;;;;;8.90;5.68;;;;;;;31.61;69.33;100926.00;5039963;28;66661;-43
2023/08/08 01:30:09;;;;;;;6.13;5.38;;;;;;;31.62;69.53;100932.25;5058791;28;72196;-42
2023/08/08 01:33:00;;;;;;;7.28;5.30;;;;;;;31.65;69.42;100942.69;5059485;28;67316;-43
2023/08/08 01:35:56;;;;;;;7.32;5.43;;;;;;;31.69;68.98;100943.06;5061263;28;71120;-42
2023/08/08 01:38:49;;;;;;;6.10;4.95;;;;;;;31.74;69.09;100945.94;5052438;28;66491;-42
2023/08/08 01:41:39;;;;;;;5.43;4.32;;;;;;;31.71;68.77;100936.38;5060136;28;71215;-43
2023/08/08 01:44:29;;;;;;;6.10;4.60;;;;;;;31.75;68.86;100939.44;5060426;28;66601;-47
2023/08/08 01:47:19;;;;;;;6.00;4.60;;;;;;;31.78;68.73;100945.25;5060923;28;71184;-43
2023/08/08 01:50:09;;;;;;;5.10;4.18;;;;;;;31.80;68.70;100939.59;5051509;28;67308;-42
2023/08/08 01:52:58;;;;;;;4.82;4.10;;;;;;;31.82;68.51;100942.94;5053574;28;71047;-42
2023/08/08 01:55:47;;;;;;;9.80;4.38;;;;;;;31.79;68.28;100938.78;5058565;28;66510;-42
2023/08/08 01:58:37;;;;;;;4.97;4.40;;;;;;;31.81;68.50;100919.56;5059652;28;70689;-43
2023/08/08 02:01:27;;;;;;;6.53;3.97;;;;;;;31.85;68.27;100934.34;5058904;28;67395;-43
2023/08/08 02:04:17;;;;;;;6.80;4.10;;;;;;;31.54;68.28;100892.75;5060471;28;70694;-43
2023/08/08 02:07:06;;;;;;;4.30;3.90;;;;;;;31.85;68.51;100934.34;5060792;28;66430;-43
2023/08/08 02:09:56;;;;;;;4.57;4.18;;;;;;;31.95;67.95;100947.38;5060280;28;71092;-42
2023/08/08 02:12:45;;;;;;;5.18;4.68;;;;;;;31.99;68.12;100951.31;5057398;28;67264;-43
2023/08/08 02:15:35;;;;;;;4.43;4.03;;;;;;;31.91;68.28;100952.44;5060647;28;71890;-43
2023/08/08 02:18:25;;;;;;;5.55;3.42;;;;;;;31.93;67.98;100944.91;5056439;28;66601;-41
2023/08/08 02:21:14;;;;;;;3.75;3.38;;;;;;;31.98;68.07;100947.78;5057111;28;71567;-42
2023/08/08 02:24:04;;;;;;;4.82;4.32;;;;;;;32.08;67.73;100951.84;5052598;28;66376;-43
2023/08/08 02:26:53;;;;;;;4.80;3.83;;;;;;;32.10;67.82;100971.44;5059246;28;70336;-41
2023/08/08 02:29:43;;;;;;;4.78;3.85;;;;;;;32.10;67.36;100988.56;5059921;28;67299;-41
2023/08/08 02:32:32;;;;;;;4.30;3.90;;;;;;;32.15;67.71;100967.00;5059526;28;71290;-42
2023/08/08 02:35:22;;;;;;;6.93;4.18;;;;;;;32.17;67.46;100966.75;5052039;28;67299;-41
2023/08/08 02:38:12;;;;;;;8.80;3.78;;;;;;;32.18;67.46;100961.13;5056075;28;70639;-41
2023/08/08 02:41:01;;;;;;;4.68;4.03;;;;;;;32.21;67.54;100962.56;5053719;28;66380;-41
2023/08/08 02:43:51;;;;;;;5.05;4.55;;;;;;;32.15;67.34;100944.44;5053450;28;70445;-44
2023/08/08 02:46:41;;;;;;;7.05;4.05;;;;;;;32.22;67.18;100945.19;5052176;28;67362;-43
2023/08/08 02:49:33;;;;;;;4.75;4.28;;;;;;;32.29;67.19;100948.66;5057122;28;71361;-42
2023/08/08 02:52:22;;;;;;;6.57;4.55;;;;;;;32.18;67.08;100930.41;5054304;28;67283;-43
2023/08/08 02:55:12;;;;;;;4.40;4.03;;;;;;;32.33;66.96;100944.44;5054291;28;70512;-41
2023/08/08 02:58:04;;;;;;;5.25;3.45;;;;;;;32.33;66.97;100943.59;5054475;28;67212;-43
2023/08/08 03:00:53;;;;;;;9.45;4.03;;;;;;;32.39;66.92;100945.41;5055541;28;70584;-41
2023/08/08 03:03:43;;;;;;;4.55;3.63;;;;;;;32.31;66.87;100924.81;5058960;28;67301;-42
2023/08/08 03:06:34;;;;;;;7.45;3.47;;;;;;;32.41;66.67;100930.53;5053694;28;71288;-43
2023/08/08 03:09:24;;;;;;;4.13;3.72;;;;;;;32.41;66.45;100929.72;5040248;28;67223;-42
2023/08/08 03:12:13;;;;;;;4.30;3.47;;;;;;;32.47;66.43;100929.66;5054989;28;69822;-43
2023/08/08 03:15:04;;;;;;;5.32;3.97;;;;;;;32.51;66.41;100924.56;5053240;28;65474;-44
2023/08/08 03:17:54;;;;;;;4.65;3.63;;;;;;;32.54;66.44;100917.84;5058585;28;71149;-42
2023/08/08 03:20:44;;;;;;;6.85;4.20;;;;;;;32.56;66.57;100921.19;5059315;28;66206;-43
2023/08/08 03:23:34;;;;;;;5.47;3.80;;;;;;;32.59;66.49;100920.72;5056035;28;71047;-42
2023/08/08 03:26:24;;;;;;;6.63;4.13;;;;;;;32.56;66.08;100899.44;5059443;28;67274;-41
2023/08/08 03:29:13;;;;;;;6.00;3.53;;;;;;;32.64;66.21;100915.41;5060185;28;70777;-42
2023/08/08 03:32:07;;;;;;;4.43;3.55;;;;;;;32.62;66.15;100887.66;5046863;28;66373;-44
2023/08/08 03:34:57;;;;;;;3.75;3.33;;;;;;;32.69;65.84;100900.09;5052893;28;70561;-43
2023/08/08 03:37:46;;;;;;;3.53;3.22;;;;;;;32.72;65.92;100898.78;5054505;28;66846;-42
2023/08/08 03:40:37;;;;;;;6.60;3.65;;;;;;;32.66;65.78;100878.00;5056378;28;71321;-42
2023/08/08 03:43:27;;;;;;;7.10;3.42;;;;;;;32.76;65.72;100889.09;5057532;28;67255;-44
2023/08/08 03:46:17;;;;;;;4.75;3.60;;;;;;;32.75;65.76;100887.47;5057604;28;70697;-42
2023/08/08 03:49:07;;;;;;;7.32;3.92;;;;;;;32.82;65.69;100893.63;5056361;28;66657;-42
2023/08/08 03:51:57;;;;;;;3.50;3.20;;;;;;;32.68;65.64;100859.56;5055411;28;71058;-43
2023/08/08 03:54:47;;;;;;;4.25;2.90;;;;;;;32.86;65.58;100883.94;5068842;28;67218;-43
2023/08/08 03:57:37;;;;;;;3.80;2.80;;;;;;;32.84;65.24;100880.63;5053246;28;70784;-42
2023/08/08 04:00:26;;;;;;;5.85;3.17;;;;;;;32.89;65.43;100878.03;5053277;28;66686;-42
2023/08/08 04:03:17;;;;;;;4.10;3.20;;;;;;;32.89;65.26;100878.03;5056821;28;71066;-42
2023/08/08 04:06:07;;;;;;;6.18;3.28;;;;;;;32.76;65.16;100839.38;5053110;28;67288;-44
2023/08/08 04:08:57;;;;;;;2.78;2.53;;;;;;;32.92;65.23;100861.25;5055412;28;71188;-44
2023/08/08 04:11:46;;;;;;;4.30;3.08;;;;;;;32.92;65.02;100847.66;5054133;28;67252;-43
2023/08/08 04:14:37;;;;;;;3.47;3.17;;;;;;;32.91;64.75;100846.03;5054464;28;72335;-43
2023/08/08 04:17:26;;;;;;;3.45;3.15;;;;;;;32.97;65.11;100854.31;5051739;28;66649;-42
2023/08/08 04:20:16;;;;;;;4.18;3.47;;;;;;;32.88;64.99;100832.09;5056487;28;71075;-44
2023/08/08 04:23:05;;;;;;;2.95;2.70;;;;;;;32.99;65.08;100844.00;5053802;28;66672;-42
2023/08/08 04:25:55;;;;;;;6.03;2.88;;;;;;;33.02;64.73;100835.44;5057340;28;70498;-41
2023/08/08 04:28:45;;;;;;;5.68;3.30;;;;;;;32.98;64.99;100826.06;5057457;28;67411;-43
2023/08/08 04:31:34;;;;;;;4.35;2.70;;;;;;;33.01;65.08;100814.75;5051284;28;71180;-43
2023/08/08 04:34:24;;;;;;;2.92;2.58;;;;;;;33.01;64.65;100814.75;5058082;28;66486;-43
2023/08/08 04:37:14;;;;;;;3.08;2.70;;;;;;;33.09;64.70;100814.38;5056919;28;71242;-40
2023/08/08 04:40:03;;;;;;;3.65;3.13;;;;;;;33.10;64.49;100814.16;5055467;28;67254;-43
2023/08/08 04:42:53;;;;;;;3.30;3.00;;;;;;;33.12;64.20;100805.75;5054161;28;71336;-42
2023/08/08 04:45:42;;;;;;;4.28;2.75;;;;;;;33.16;64.30;100798.81;5053793;28;67332;-40
2023/08/08 04:48:32;;;;;;;3.28;2.97;;;;;;;33.17;64.22;100786.03;5058488;28;69799;-43
2023/08/08 04:51:21;;;;;;;2.92;2.70;;;;;;;33.12;64.37;100767.72;5060638;28;67228;-43
2023/08/08 04:54:11;;;;;;;2.70;2.50;;;;;;;33.22;63.74;100778.00;5060135;28;70507;-41
2023/08/08 04:57:01;;;;;;;3.75;2.47;;;;;;;33.16;64.04;100768.91;5064515;28;67257;-41
2023/08/08 04:59:51;;;;;;;8.13;2.90;;;;;;;33.25;63.83;100778.34;5060834;28;69906;-45
2023/08/08 05:02:41;;;;;;;3.97;2.40;;;;;;;32.86;64.04;100710.06;5057522;28;67358;-42
2023/08/08 05:05:30;;;;;;;5.43;2.85;;;;;;;33.24;63.56;100764.97;5052998;28;71107;-44
2023/08/08 05:08:20;;;;;;;6.75;3.28;;;;;;;33.19;63.76;100743.97;5059452;28;68416;-44
2023/08/08 05:11:10;;;;;;;4.80;2.58;;;;;;;33.34;63.38;100776.88;5060200;28;71785;-43
2023/08/08 05:13:59;;;;;;;5.90;3.00;;;;;;;33.30;63.13;100748.53;5059563;28;66508;-42
2023/08/08 05:16:49;;;;;;;2.88;2.45;;;;;;;33.40;63.26;100749.81;5055129;28;71432;-43
2023/08/08 05:19:38;;;;;;;5.43;2.70;;;;;;;33.30;63.25;100732.22;5063023;28;66468;-45
2023/08/08 05:22:28;;;;;;;3.03;2.72;;;;;;;33.42;63.20;100758.56;5062736;28;71254;-42
2023/08/08 05:25:18;;;;;;;4.70;2.78;;;;;;;33.37;62.65;100751.94;5060703;28;67319;-44
2023/08/08 05:28:07;;;;;;;2.80;2.50;;;;;;;33.46;62.87;100757.84;5059800;28;71111;-43
2023/08/08 05:30:59;;;;;;;3.85;2.47;;;;;;;33.49;62.61;100737.47;5052732;28;67524;-43
2023/08/08 05:33:52;;;;;;;3.22;2.67;;;;;;;33.47;62.58;100747.78;5055296;28;71305;-44
2023/08/08 05:36:41;;;;;;;3.10;2.80;;;;;;;33.51;62.45;100732.63;5055556;28;67636;-42
2023/08/08 05:39:31;;;;;;;3.00;2.58;;;;;;;33.56;62.38;100743.66;5056601;28;71197;-42
2023/08/08 05:42:21;;;;;;;2.67;2.47;;;;;;;33.50;62.72;100714.66;5052788;28;67193;-42
2023/08/08 05:45:10;;;;;;;3.10;2.80;;;;;;;33.57;62.13;100731.69;5053680;28;70760;-43
2023/08/08 05:48:00;;;;;;;3.05;2.75;;;;;;;33.62;62.29;100734.50;5057308;28;66754;-44
2023/08/08 05:50:49;;;;;;;4.00;2.53;;;;;;;33.58;62.18;100720.56;5057343;28;70676;-42
2023/08/08 05:53:39;;;;;;;5.60;2.92;;;;;;;33.66;61.99;100722.09;5052954;28;67067;-43
2023/08/08 05:56:38;;;;;;;4.18;2.80;;;;;;;33.50;61.44;100698.34;5051412;28;71226;-42
2023/08/08 05:59:27;;;;;;;5.68;2.63;;;;;;;33.72;62.01;100718.38;5053254;28;66586;-43
2023/08/08 06:02:16;;;;;;;2.50;2.30;;;;;;;33.74;61.76;100716.25;5044019;28;70202;-42
2023/08/08 06:05:07;;;;;;;9.35;2.40;;;;;;;33.77;61.78;100725.84;5051189;28;67230;-44
2023/08/08 06:07:56;;;;;;;3.38;2.70;;;;;;;33.68;61.60;100706.31;5049205;28;70548;-43
2023/08/08 06:10:47;;;;;;;2.53;2.33;;;;;;;33.79;61.64;100721.81;5056194;28;67369;-43
2023/08/08 06:13:37;;;;;;;6.03;2.85;;;;;;;33.85;61.38;100710.97;5058648;28;71074;-44
2023/08/08 06:16:28;;;;;;;4.80;2.47;;;;;;;33.88;61.40;100710.50;5045797;28;66461;-41
2023/08/08 06:19:18;;;;;;;4.28;2.60;;;;;;;33.84;61.02;100699.28;5060048;28;70771;-42
2023/08/08 06:22:07;;;;;;;6.38;2.78;;;;;;;33.92;60.96;100706.22;5057937;28;66458;-44
2023/08/08 06:24:56;;;;;;;2.80;2.60;;;;;;;33.98;61.37;100707.97;5052202;28;71082;-44
2023/08/08 06:27:46;;;;;;;2.92;2.63;;;;;;;33.84;61.22;100669.34;5059151;28;66209;-44
2023/08/08 06:30:37;;;;;;;3.57;2.80;;;;;;;34.02;60.69;100695.53;5050067;28;71647;-44
2023/08/08 06:33:27;;;;;;;2.70;2.50;;;;;;;34.02;60.83;100692.81;5053041;28;66620;-43
2023/08/08 06:36:16;;;;;;;3.65;3.35;;;;;;;34.03;60.44;100683.56;5058314;28;70623;-44
2023/08/08 06:39:05;;;;;;;2.95;2.75;;;;;;;34.11;60.81;100694.06;5057914;28;67234;-43
2023/08/08 06:41:55;;;;;;;2.90;2.55;;;;;;;34.15;60.84;100689.78;5056884;28;71274;-43
2023/08/08 06:44:57;;;;;;;;;;;;;;;33.90;60.58;100681.16;5048438;28;67239;-43
2023/08/08 06:47:46;;;;;;;2.75;2.55;;;;;;;34.18;60.76;100683.81;5058580;28;71423;-44
2023/08/08 06:50:35;;;;;;;3.40;2.97;;;;;;;34.24;60.10;100680.13;5055634;28;66713;-44
2023/08/08 06:53:24;;;;;;;3.67;3.38;;;;;;;34.28;59.97;100666.03;5045085;28;70796;-45
2023/08/08 06:56:14;;;;;;;2.65;2.45;;;;;;;34.24;60.18;100660.22;5054696;28;67402;-44
2023/08/08 06:59:04;;;;;;;3.35;2.80;;;;;;;34.33;59.95;100664.19;5047705;28;70450;-44
2023/08/08 07:01:56;;;;;;;3.72;3.00;;;;;;;34.29;59.94;100641.25;5058473;28;67235;-43
2023/08/08 07:04:44;;;;;;;;;;;;;;;34.13;59.74;100653.81;5052616;28;71320;-43
2023/08/08 07:07:35;;;;;;;3.88;3.30;;;;;;;34.33;59.55;100639.69;5056803;28;67648;-43
2023/08/08 07:10:24;;;;;;;5.57;3.53;;;;;;;34.44;59.45;100635.22;5050277;28;71079;-44
2023/08/08 07:13:15;;;;;;;9.93;3.10;;;;;;;34.50;59.60;100639.66;5054675;28;67217;-43
2023/08/08 07:16:04;;;;;;;3.45;3.15;;;;;;;34.50;59.63;100636.94;5049551;28;69525;-45
2023/08/08 07:18:54;;;;;;;3.65;3.35;;;;;;;33.98;59.22;100564.53;5055297;28;67355;-44
2023/08/08 07:21:44;;;;;;;3.67;3.10;;;;;;;34.58;59.49;100636.53;5050628;28;70497;-44
2023/08/08 07:24:33;;;;;;;3.70;3.33;;;;;;;34.49;59.51;100618.94;5053092;28;67471;-45
2023/08/08 07:27:23;;;;;;;3.58;3.28;;;;;;;34.50;59.21;100617.06;5050678;28;71685;-42
2023/08/08 07:30:13;;;;;;;5.30;3.45;;;;;;;34.66;58.82;100636.09;5058280;28;66719;-44
2023/08/08 07:33:02;;;;;;;3.85;3.05;;;;;;;34.55;58.70;100612.50;5057962;28;70408;-43
2023/08/08 07:35:52;;;;;;;3.78;3.47;;;;;;;34.57;58.99;100618.53;5056200;28;67288;-44
2023/08/08 07:38:41;;;;;;;5.80;3.83;;;;;;;34.73;58.49;100618.75;5054797;28;70475;-44
2023/08/08 07:41:31;;;;;;;4.22;3.55;;;;;;;34.60;58.92;100609.88;5051164;28;66495;-44
2023/08/08 07:44:21;;;;;;;4.10;3.45;;;;;;;34.79;58.39;100617.72;5044587;28;71115;-45
2023/08/08 07:47:11;;;;;;;3.80;3.50;;;;;;;34.82;58.69;100617.22;5054453;28;66552;-43
2023/08/08 07:50:00;;;;;;;4.05;3.67;;;;;;;34.81;58.15;100618.31;5058592;28;71156;-43
2023/08/08 07:52:50;;;;;;;4.43;4.03;;;;;;;34.68;57.98;100584.06;5051977;28;67292;-43
2023/08/08 07:55:39;;;;;;;4.25;3.80;;;;;;;34.85;58.45;100605.81;5057495;28;71098;-44
2023/08/08 07:58:29;;;;;;;4.20;3.90;;;;;;;34.88;57.63;100605.28;5057963;28;67273;-44
2023/08/08 08:01:19;;;;;;;4.50;4.10;;;;;;;34.63;57.95;100563.06;5051271;28;70194;-43
2023/08/08 08:04:08;;;;;;;4.20;3.88;;;;;;;34.93;57.92;100602.63;5057558;28;66862;-44
2023/08/08 08:06:58;;;;;;;4.72;4.32;;;;;;;34.90;57.71;100592.25;5050741;28;71449;-43
2023/08/08 08:09:47;;;;;;;5.63;4.10;;;;;;;34.95;58.03;100603.22;5054600;28;66466;-46
2023/08/08 08:12:37;;;;;;;4.00;3.63;;;;;;;34.98;57.43;100607.34;5054251;28;70351;-46
2023/08/08 08:15:27;;;;;;;4.35;3.95;;;;;;;34.99;58.12;100596.16;5053680;28;67501;-43
2023/08/08 08:18:17;;;;;;;5.10;4.25;;;;;;;34.89;57.57;100574.25;5058586;28;70518;-44
2023/08/08 08:21:07;;;;;;;4.25;3.95;;;;;;;35.02;57.47;100594.81;5055472;28;66833;-45
2023/08/08 08:23:56;;;;;;;6.63;3.88;;;;;;;35.03;57.43;100583.69;5053853;28;71130;-44
2023/08/08 08:26:46;;;;;;;4.10;3.58;;;;;;;35.04;57.81;100590.78;5053542;28;66506;-47
2023/08/08 08:29:36;;;;;;;4.18;3.70;;;;;;;35.00;57.22;100581.47;5049681;28;70729;-43
2023/08/08 08:32:26;;;;;;;5.75;4.65;;;;;;;34.97;57.25;100573.00;5048114;28;66925;-44
2023/08/08 08:35:16;;;;;;;4.25;3.95;;;;;;;35.04;57.10;100565.41;5051262;28;71152;-43
2023/08/08 08:38:06;;;;;;;5.15;4.65;;;;;;;35.07;57.67;100576.66;5048525;28;67198;-42
2023/08/08 08:40:57;;;;;;;4.90;4.50;;;;;;;34.57;57.62;100501.41;5044094;28;70114;-45
2023/08/08 08:43:48;;;;;;;4.18;3.88;;;;;;;35.07;56.98;100570.38;5048818;28;67175;-44
2023/08/08 08:46:39;;;;;;;6.45;4.13;;;;;;;34.98;57.39;100550.91;5051853;28;71049;-43
2023/08/08 08:49:31;;;;;;;4.60;4.15;;;;;;;35.08;57.08;100577.50;5044707;28;67258;-43
2023/08/08 08:52:22;;;;;;;4.32;4.03;;;;;;;34.53;57.44;100491.25;5048632;28;71199;-44
2023/08/08 08:55:12;;;;;;;3.78;3.47;;;;;;;35.08;57.49;100572.06;5049767;28;67147;-45
2023/08/08 08:58:03;;;;;;;7.55;3.90;;;;;;;35.05;57.34;100567.91;5056904;28;71209;-45
2023/08/08 09:00:53;;;;;;;4.23;3.93;;;;;;;35.08;57.27;100572.06;5052326;28;66675;-44
2023/08/08 09:03:45;;;;;;;6.57;4.03;;;;;;;35.02;57.17;100552.06;5057327;28;71127;-45
2023/08/08 09:06:35;;;;;;;4.90;4.43;;;;;;;35.10;57.51;100559.81;5050577;28;67056;-44
2023/08/08 09:09:24;;;;;;;4.22;3.83;;;;;;;35.04;57.48;100558.06;5052418;28;71430;-45
2023/08/08 09:12:15;;;;;;;4.45;4.05;;;;;;;35.13;57.40;100574.81;5051933;28;67535;-43
2023/08/08 09:15:05;;;;;;;7.13;4.28;;;;;;;35.12;57.50;100562.25;5054453;28;71174;-45
2023/08/08 09:17:55;;;;;;;4.28;3.97;;;;;;;35.09;57.62;100569.06;5046644;28;66913;-42
2023/08/08 09:20:49;;;;;;;7.65;4.63;;;;;;;34.48;56.83;100468.31;5048633;28;71329;-43
2023/08/08 09:23:38;;;;;;;4.00;3.70;;;;;;;35.12;57.46;100563.09;5047768;28;66330;-45
2023/08/08 09:26:29;;;;;;;5.18;4.65;;;;;;;35.12;56.98;100568.53;5053114;28;70016;-47
2023/08/08 09:29:19;;;;;;;8.30;4.45;;;;;;;35.14;57.64;100563.66;5051664;28;67813;-44
2023/08/08 09:32:09;;;;;;;6.50;4.75;;;;;;;35.14;57.42;100571.84;5042963;28;70788;-44
2023/08/08 09:35:00;;;;;;;5.05;4.70;;;;;;;35.12;57.44;100563.09;5039100;28;66784;-43
2023/08/08 09:37:52;;;;;;;4.68;4.28;;;;;;;35.12;57.01;100579.44;5048048;28;71256;-44
2023/08/08 09:40:42;;;;;;;4.80;4.40;;;;;;;35.05;57.13;100565.19;5058224;28;67381;-44
2023/08/08 09:43:32;;;;;;;4.60;4.30;;;;;;;35.11;57.54;100580.53;5061223;28;70543;-44
2023/08/08 09:46:22;;;;;;;4.80;4.32;;;;;;;35.02;57.09;100562.97;5056710;28;67164;-44
2023/08/08 09:49:12;;;;;;;4.72;4.38;;;;;;;35.14;57.56;100585.47;5060115;28;71261;-44
2023/08/08 09:52:02;;;;;;;5.07;4.63;;;;;;;35.13;57.00;100585.72;5060144;28;66563;-44
2023/08/08 09:54:53;;;;;;;5.32;3.90;;;;;;;35.11;57.38;100588.72;5053110;28;71180;-45
2023/08/08 09:57:43;;;;;;;6.13;4.55;;;;;;;35.10;57.14;100587.06;5060449;28;67372;-45
2023/08/08 10:00:34;;;;;;;4.72;4.25;;;;;;;35.09;57.15;100590.88;5059771;28;71292;-44
2023/08/08 10:03:24;;;;;;;7.05;4.45;;;;;;;35.11;56.96;100594.16;5059285;28;67219;-45
2023/08/08 10:06:17;;;;;;;6.38;4.72;;;;;;;35.06;57.42;100590.56;5060420;28;71212;-44
2023/08/08 10:09:07;;;;;;;6.90;4.85;;;;;;;35.11;57.03;100615.97;5058743;28;67967;-43
2023/08/08 10:11:57;;;;;;;6.28;4.43;;;;;;;35.11;56.96;100610.53;5058038;28;71214;-44
2023/08/08 10:14:48;;;;;;;4.68;4.28;;;;;;;34.69;56.70;100553.88;5056157;28;66524;-45
2023/08/08 10:17:39;;;;;;;6.38;4.85;;;;;;;35.05;57.23;100611.50;5054191;28;70798;-43
2023/08/08 10:20:35;;;;;;;9.27;4.68;;;;;;;35.03;57.32;100608.22;5053777;28;66994;-43
2023/08/08 10:23:24;;;;;;;4.80;4.40;;;;;;;35.04;57.16;100615.31;5054569;28;71694;-44
2023/08/08 10:26:20;;;;;;;8.70;5.65;;;;;;;35.02;57.51;100622.09;5057155;28;66912;-43
2023/08/08 10:29:18;;;;;;;7.28;4.80;;;;;;;34.89;57.43;100606.97;5056455;28;70212;-43
2023/08/08 10:32:08;;;;;;;6.45;5.30;;;;;;;34.88;57.92;100610.75;5058898;28;66996;-43
2023/08/08 10:35:00;;;;;;;7.22;5.20;;;;;;;35.01;57.51;100620.44;5059279;28;70931;-44
2023/08/08 10:37:54;;;;;;;6.10;5.38;;;;;;;34.59;58.02;100563.81;5055188;28;67267;-44
2023/08/08 10:40:44;;;;;;;7.40;5.43;;;;;;;34.97;58.21;100644.66;5058732;28;71419;-43
2023/08/08 10:43:34;;;;;;;8.45;5.25;;;;;;;34.96;58.16;100628.56;5056857;28;67172;-44
2023/08/08 10:46:29;;;;;;;5.90;5.07;;;;;;;34.92;58.37;100644.59;5053286;28;71239;-43
2023/08/08 10:49:19;;;;;;;6.72;4.90;;;;;;;34.93;57.99;100647.06;5046081;28;67343;-43
2023/08/08 10:52:14;;;;;;;11.18;5.55;;;;;;;34.41;58.14;100573.91;5052272;28;71138;-44
2023/08/08 10:55:04;;;;;;;6.03;4.88;;;;;;;34.88;57.88;100638.00;5069233;28;67332;-43
2023/08/08 10:57:56;;;;;;;5.85;5.15;;;;;;;34.91;58.47;100664.78;5052088;28;71224;-43
2023/08/08 11:00:46;;;;;;;6.30;5.72;;;;;;;34.88;58.51;100659.78;5056267;28;67257;-43
2023/08/08 11:03:40;;;;;;;7.78;4.97;;;;;;;34.90;58.04;100668.56;5056605;28;70303;-44
2023/08/08 11:06:30;;;;;;;7.72;5.70;;;;;;;34.88;58.20;100670.69;5053839;28;67447;-44
2023/08/08 11:09:20;;;;;;;10.15;5.30;;;;;;;34.79;58.22;100661.31;5055721;28;71231;-44
2023/08/08 11:12:16;;;;;;;5.00;4.60;;;;;;;34.83;58.49;100676.09;5057340;28;66998;-44
2023/08/08 11:15:06;;;;;;;9.18;5.00;;;;;;;34.79;58.36;100674.94;5052301;28;70563;-43
2023/08/08 11:17:57;;;;;;;5.70;5.07;;;;;;;34.84;58.93;100683.19;5052873;28;67391;-44
2023/08/08 11:20:48;;;;;;;6.05;5.55;;;;;;;34.71;58.31;100670.75;5056816;28;71150;-44
2023/08/08 11:23:38;;;;;;;5.93;5.32;;;;;;;34.81;59.05;100687.25;5056181;28;66464;-43
2023/08/08 11:26:31;;;;;;;5.40;5.00;;;;;;;34.77;58.60;100699.75;5057362;28;70812;-43
2023/08/08 11:29:21;;;;;;;6.53;5.93;;;;;;;34.75;58.74;100703.78;5068038;28;67030;-44
2023/08/08 11:32:10;;;;;;;6.25;5.60;;;;;;;34.74;59.23;100700.22;5046429;28;71306;-45
2023/08/08 11:35:02;;;;;;;7.95;6.55;;;;;;;34.75;59.23;100709.25;5060266;28;67495;-42
2023/08/08 11:37:57;;;;;;;8.60;6.90;;;;;;;34.66;59.26;100717.84;5060001;28;71490;-43
2023/08/08 11:40:46;;;;;;;6.97;6.03;;;;;;;34.62;59.11;100700.31;5052468;28;66597;-44
2023/08/08 11:43:36;;;;;;;7.38;6.70;;;;;;;34.67;59.56;100710.47;5056543;28;71095;-45
2023/08/08 11:46:27;;;;;;;13.15;6.57;;;;;;;34.56;59.93;100706.78;5053163;28;66791;-44
2023/08/08 11:49:17;;;;;;;11.73;6.93;;;;;;;34.44;61.44;100722.38;5054159;28;71089;-44
2023/08/08 11:52:08;;;;;;;16.40;7.45;;;;;;;33.95;60.58;100641.25;5053842;28;66716;-44
2023/08/08 11:55:02;;;;;;;9.55;6.90;;;;;;;34.14;60.71;100673.69;5057145;28;70457;-42
2023/08/08 11:58:02;;;;;;;10.32;7.72;;;;;;;34.34;62.00;100720.31;5049998;28;67167;-46
2023/08/08 12:00:52;;;;;;;25.45;14.57;;;;;;;34.44;62.23;100736.00;5051947;28;70351;-47
2023/08/08 12:03:41;;;;;;;37.40;18.00;;;;;;;34.39;64.49;100754.97;5048021;28;66778;-43
2023/08/08 12:06:30;;;;;;;35.70;19.15;;;;;;;34.52;62.44;100757.38;5046423;28;70796;-42
2023/08/08 12:09:20;;;;;;;32.17;17.52;;;;;;;34.42;63.04;100754.47;5049556;28;67334;-41
2023/08/08 12:12:10;;;;;;;25.70;16.30;;;;;;;34.35;64.52;100751.91;5057659;28;70646;-43
2023/08/08 12:14:59;;;;;;;22.63;15.02;;;;;;;34.24;64.53;100740.03;5057917;28;67576;-41
2023/08/08 12:18:02;;;;;;;20.60;13.38;;;;;;;33.85;64.81;100681.91;5055464;28;70515;-45
2023/08/08 12:20:53;;;;;;;16.13;13.27;;;;;;;34.25;64.12;100755.28;5056293;28;67522;-42
2023/08/08 12:23:42;;;;;;;18.88;12.07;;;;;;;34.28;63.86;100767.59;5055591;28;71200;-44
2023/08/08 12:26:32;;;;;;;18.85;12.75;;;;;;;34.22;64.54;100766.66;5052541;28;67283;-42
2023/08/08 12:29:22;;;;;;;13.57;10.52;;;;;;;34.18;64.50;100773.66;5050681;28;71055;-42
2023/08/08 12:32:11;;;;;;;15.10;10.52;;;;;;;34.16;65.23;100775.00;5050758;28;67426;-43
2023/08/08 12:35:01;;;;;;;10.65;8.63;;;;;;;33.75;65.91;100777.75;5047708;28;70455;-44
2023/08/08 12:37:50;;;;;;;11.90;8.95;;;;;;;33.58;64.87;100790.47;5053122;28;66622;-45
2023/08/08 12:40:40;;;;;;;16.42;8.98;;;;;;;33.42;64.29;100794.72;5053625;28;70548;-42
2023/08/08 12:43:29;;;;;;;10.15;8.35;;;;;;;33.25;63.66;100797.38;5056280;28;66979;-44
2023/08/08 12:46:19;;;;;;;8.23;7.50;;;;;;;33.11;63.47;100809.56;5054036;28;70732;-43
2023/08/08 12:49:09;;;;;;;9.40;8.02;;;;;;;32.91;62.59;100805.28;5055344;28;66378;-43
2023/08/08 12:51:58;;;;;;;8.20;7.45;;;;;;;32.75;61.14;100814.13;5053633;28;71424;-41
2023/08/08 12:54:48;;;;;;;8.38;7.70;;;;;;;33.02;61.27;100800.13;5052398;28;67168;-44
2023/08/08 12:57:38;;;;;;;13.27;8.73;;;;;;;33.01;59.40;100798.44;5052119;28;71139;-45
2023/08/08 13:00:28;;;;;;;10.82;7.82;;;;;;;33.13;58.72;100821.03;5058298;28;66640;-43
2023/08/08 13:03:19;;;;;;;10.75;7.72;;;;;;;33.01;57.87;100812.03;5051700;28;70194;-43
2023/08/08 13:06:11;;;;;;;11.57;7.70;;;;;;;33.00;57.11;100829.41;5049478;28;67299;-44
2023/08/08 13:09:01;;;;;;;13.40;8.10;;;;;;;33.00;56.71;100835.66;5052031;28;70424;-43
2023/08/08 13:11:51;;;;;;;8.48;7.75;;;;;;;32.87;55.50;100825.81;5052154;28;66228;-43